Race summary (Track: Fuji | Season: 19 | Race: 15 | Group: Elite)

Season:  Race:

Select another group:

Pos Progress Tyres Nat Manager name Race time Laps Pitstops Best lap Average speed Best pit time
01. No change ±0 Michelini   Toygun Senler1 1h38:18.583 67 3 1:26.104 186.39km/h 8.880s
02. +5 +5 Michelini   Vladimir Islentiev2 + 41.971 67 3 1:26.598 185.07km/h 8.758s
03. +1 +1 Michelini   Edvinas Pranculevicius + 52.619 67 3 1:26.813 184.74km/h 10.771s
04. +4 +4 Michelini   Jari Aareskoski3 + 58.178 67 3 1:26.990 184.57km/h 9.050s
05. -3 -3 Michelini   Zdenek Hladik + 1:09.250 67 3 1:26.986 184.23km/h 14.615s
06. -3 -3 Michelini   João Monteiro + 1:09.393 67 3 1:26.984 184.22km/h 11.757s
07. +6 +6 Dunnolop   Leandro Sereno2 + 1:12.328 67 3 1:27.112 184.13km/h 9.833s
08. +1 +1 Michelini   Tomasz Kaminski + 1:23.535 67 3 1:27.054 183.79km/h 14.406s
09. -4 -4 Michelini   Nuno Vicente + 1:27.867 66 3 1:27.217 183.65km/h 13.091s
10. -4 -4 Michelini   Marek Marchewka + 1:31.130 66 3 1:27.390 183.55km/h 13.062s
11. +3 +3 Michelini   Denis Grahov + 1:37.261 66 3 1:27.284 183.37km/h 11.802s
12. +3 +3 Michelini   Aleksej Sutkin + 1:49.977 66 4 1:26.698 182.98km/h 12.398s
13. -2 -2 Michelini   Joan Centellas + 1:50.530 66 4 1:27.056 182.96km/h 11.362s
14. -2 -2 Dunnolop   Daniele Ambroggi + 1:51.704 66 2 1:27.832 182.93km/h 12.642s
15. +7 +7 Michelini   Laila Britāle + 1:54.591 66 3 1:27.419 182.84km/h 12.637s
16. +2 +2 Michelini   Martynas Molneris + 2:11.577 66 3 1:27.636 182.32km/h 13.062s
17. -7 -7 Michelini   Jan Zaluski + 2:16.109 66 3 1:27.711 182.19km/h 13.798s
18. -2 -2 Dunnolop   Andrius Talandzevicius + 2:20.018 66 3 1:27.537 182.07km/h 13.555s
19. +1 +1 Dunnolop   Gabriel Toma + 2:32.883 66 3 1:27.716 181.68km/h 18.001s
20. -1 -1 Michelini   Wagner Souza + 2:52.421 65 4 1:27.151 181.10km/h 13.662s
21. -4 -4 Dunnolop   Oli Jais + 3:21.198 65 3 1:28.643 180.24km/h 11.996s
22. +1 +1 Michelini   Renato Svaiter + 3:37.531 65 2 1:29.376 179.76km/h 12.788s
23. +4 +4 Badyear   Toni Söyrinki + 5:37.205 64 2 1:31.171 176.31km/h 14.997s
24. +2 +2 Badyear   Lee Ifans + 5:44.187 64 2 1:30.869 176.11km/h 23.082s
25. No change ±0 Dunnolop   Kostas Farsalinos + 6:23.574 63 3 1:30.949 175.01km/h 18.228s
26. +2 +2 Badyear   Michael Monaco + 6:29.775 63 2 1:31.532 174.84km/h 18.670s
27. +5 +5 Michelini   Martin Rosina + 7:05.566 63 2 1:32.207 173.85km/h 13.567s
28. +1 +1 Pipirelli   Mikko Heikkinen + 7:35.389 62 2 1:32.826 173.03km/h 16.373s
29. +2 +2 Pipirelli   Philipp Hartmann + 8:06.375 62 2 1:33.180 172.19km/h 14.648s
30. +3 +3 Pipirelli   Martynas Atkočius + 8:06.781 62 2 1:32.947 172.18km/h 15.219s
31. -1 -1 Pipirelli   Craig Templeman + 8:17.500 62 3 1:32.861 171.89km/h 17.013s
32. -8 -8 Michelini   Rimantas Sagatas + 9:02.158 61 2 1:31.593 170.70km/h 14.085s
Not classified
33. -12 -12 Michelini   Vitor Novo Technical problems 53 3 1:31.271    16.651s
34. +1 +1 Dunnolop   Michalis Marolachakis Technical problems 27 0 1:35.425    -
35. -1 -1 Michelini   Filipe Miguel Technical problems 18 1 1:33.902    21.769s